Terminal Aerodrome Forecast
Issued by NWS La Crosse, WI

Home | Current Version | Previous Version | Text Only | Print | Product List | Glossary On
Versions: 1 2 3 4 5 6 7 8 9 10 11 12 13 14 15 16 17 18
000
FTUS43 KARX 220838 AAA
TAFLSE
TAF AMD
KLSE 220838Z 2209/2306 18006KT P6SM SCT100
     FM221400 18010G20KT P6SM SKC
     FM230000 17008KT P6SM SKC=

USA.gov is the U.S. government's official web portal to all federal, state and local government web resources and services.